Details for Ryanair at LIRF




Go Back


Latest METAR
Local Time

LIRF 241350Z VRB03KT 9999 SCT022 SCT035 12/09 Q1005 NOSIG

24/02/2018, 15:03:21

Description
Results
Ryanair Logo
Number of Pilots based at LIRF
0 Pilots Based here
Number of Ryanair Flights Departed from LIRF
4 Flights Departed
Number of Ryanair Flights Arrived at LIRF
2 Flights Arrived
Number of Ryanair Schedules Departing from LIRF
46 Schedules
Number of Ryanair Schedules Arriving at LIRF
45 Schedules
Number of Ryanair Schedules Departing from LIRF availible today
26 Schedules Today
Number of Ryanair Schedules Arriving at LIRF availible today
26 Schedules Today
Average Landing Rate at LIRF
-192 fpm
Ryanair Average Landing Rate at LIRF
-186 fpm
Total Fuel Purchased at LIRF by Ryanair
35,747.16 kgs / 78,808.19 lbs

Pilots Based at LIRF


Pilot ID
Pilot Name
Pilot Rank
No. of Flights
No. of Flying Hours
There are no pilots assigned to this hub!   Will you be the first?
Content